createdAt,value
2022-07-29T00:02:25.403Z,4.47
2022-07-29T00:05:02.294Z,5.40
2022-07-29T00:07:36.394Z,5.47
2022-07-29T00:10:11.372Z,3.72
2022-07-29T00:12:47.235Z,3.20
2022-07-29T00:18:01.849Z,5.30
2022-07-29T00:20:39.322Z,2.70
2022-07-29T00:23:15.251Z,8.50
2022-07-29T00:28:21.603Z,5.03
2022-07-29T00:31:00.913Z,3.58
2022-07-29T00:33:33.843Z,4.40
2022-07-29T00:36:13.380Z,4.28
2022-07-29T00:38:47.361Z,3.00
2022-07-29T00:41:20.476Z,3.55
2022-07-29T00:43:56.397Z,3.85
2022-07-29T00:49:03.830Z,3.40
2022-07-29T00:51:40.137Z,5.35
2022-07-29T00:54:22.850Z,4.47
2022-07-29T00:56:57.460Z,7.20
2022-07-29T00:59:35.148Z,4.95
2022-07-29T01:02:09.790Z,6.20
2022-07-29T01:04:42.764Z,8.93
2022-07-29T01:07:21.808Z,2.47
2022-07-29T01:10:04.461Z,3.63
2022-07-29T01:12:40.119Z,4.57
2022-07-29T01:15:19.510Z,5.97
2022-07-29T01:17:56.564Z,3.25
2022-07-29T01:20:33.862Z,13.27
2022-07-29T01:23:24.720Z,5.30
2022-07-29T01:26:14.346Z,4.05
2022-07-29T01:29:08.497Z,4.80
2022-07-29T01:31:55.189Z,3.95
2022-07-29T01:34:36.409Z,4.70
2022-07-29T01:37:13.647Z,3.90
2022-07-29T01:39:48.836Z,4.70
2022-07-29T01:42:26.964Z,2.85
2022-07-29T01:45:03.801Z,3.10
2022-07-29T01:47:37.612Z,6.10
2022-07-29T01:50:13.089Z,2.45
2022-07-29T01:52:49.510Z,5.85
2022-07-29T01:55:24.562Z,3.45
2022-07-29T01:57:58.284Z,4.60
2022-07-29T02:00:35.736Z,5.63
2022-07-29T02:03:14.223Z,4.20
2022-07-29T02:05:51.473Z,4.90
2022-07-29T02:08:30.943Z,5.60
2022-07-29T02:11:07.331Z,3.60
2022-07-29T02:13:41.879Z,3.40
2022-07-29T02:16:18.242Z,7.45
2022-07-29T02:18:53.008Z,4.20
2022-07-29T02:21:30.230Z,4.97
2022-07-29T02:24:03.306Z,4.33
2022-07-29T02:26:41.191Z,3.13
2022-07-29T02:29:14.404Z,4.30
2022-07-29T02:31:53.982Z,4.90
2022-07-29T02:34:29.849Z,5.25
2022-07-29T02:37:02.647Z,3.55
2022-07-29T02:39:38.285Z,4.07
2022-07-29T02:42:11.378Z,4.95
2022-07-29T02:44:45.687Z,4.60
2022-07-29T02:47:25.285Z,4.00
2022-07-29T02:50:01.583Z,5.50
2022-07-29T02:52:38.672Z,4.65
2022-07-29T02:55:18.170Z,5.10
2022-07-29T02:57:59.354Z,5.63
2022-07-29T03:00:34.331Z,7.28
2022-07-29T03:03:20.943Z,4.70
2022-07-29T03:05:53.496Z,7.03
2022-07-29T03:08:26.152Z,6.88
2022-07-29T03:10:58.879Z,3.43
2022-07-29T03:13:32.686Z,3.50
2022-07-29T03:16:07.535Z,4.03
2022-07-29T03:18:44.086Z,5.65
2022-07-29T03:21:18.886Z,7.10
2022-07-29T03:23:55.326Z,7.30
2022-07-29T03:26:33.583Z,5.47
2022-07-29T03:29:07.198Z,6.03
2022-07-29T03:31:41.875Z,5.57
2022-07-29T03:34:23.523Z,3.10
2022-07-29T03:37:01.314Z,4.87
2022-07-29T03:39:39.713Z,4.70
2022-07-29T03:42:16.151Z,4.53
2022-07-29T03:44:51.714Z,2.65
2022-07-29T03:47:49.880Z,5.50
2022-07-29T03:50:26.966Z,12.73
2022-07-29T03:52:59.648Z,4.67
2022-07-29T03:55:37.395Z,5.95
2022-07-29T03:58:12.180Z,7.47
2022-07-29T04:00:49.318Z,3.55
2022-07-29T04:03:27.358Z,6.95
2022-07-29T04:06:12.178Z,6.30
2022-07-29T04:08:50.769Z,4.85
2022-07-29T04:11:23.959Z,6.60
2022-07-29T04:13:58.672Z,7.77
2022-07-29T04:16:32.994Z,5.32
2022-07-29T04:19:08.913Z,7.50
2022-07-29T04:21:46.461Z,8.10
2022-07-29T04:24:20.604Z,5.40
2022-07-29T04:26:56.197Z,6.82
2022-07-29T04:29:31.851Z,9.57
2022-07-29T04:32:05.262Z,6.60
2022-07-29T04:34:40.153Z,7.22
2022-07-29T04:37:20.265Z,5.57
2022-07-29T04:39:56.149Z,10.40
2022-07-29T04:45:12.315Z,4.30
2022-07-29T04:47:45.073Z,7.88
2022-07-29T04:50:24.568Z,5.88
2022-07-29T04:53:00.712Z,3.83
2022-07-29T04:55:34.130Z,5.50
2022-07-29T04:58:10.934Z,5.57
2022-07-29T05:00:44.593Z,12.70
2022-07-29T05:03:18.494Z,4.13
2022-07-29T05:05:55.185Z,6.80
2022-07-29T05:08:35.907Z,5.90
2022-07-29T05:11:12.498Z,7.28
2022-07-29T05:13:47.203Z,7.70
2022-07-29T05:16:22.852Z,5.40
2022-07-29T05:18:55.624Z,5.70
2022-07-29T05:21:29.011Z,3.85
2022-07-29T05:24:03.351Z,23.60
2022-07-29T05:26:36.096Z,4.00
2022-07-29T05:29:42.738Z,6.03
2022-07-29T05:32:05.767Z,6.10
2022-07-29T05:34:39.105Z,6.13
2022-07-29T05:37:26.139Z,6.82
2022-07-29T05:40:01.001Z,5.00
2022-07-29T05:42:38.040Z,4.75
2022-07-29T05:47:48.566Z,5.43
2022-07-29T05:50:23.169Z,4.57
2022-07-29T05:53:00.370Z,6.60
2022-07-29T05:55:53.181Z,8.75
2022-07-29T05:58:30.658Z,5.10
2022-07-29T06:01:03.448Z,5.68
2022-07-29T06:03:39.103Z,9.57
2022-07-29T06:06:16.804Z,4.80
2022-07-29T06:08:51.010Z,6.38
2022-07-29T06:11:26.071Z,5.55
2022-07-29T06:14:00.952Z,12.25
2022-07-29T06:16:33.173Z,5.80
2022-07-29T06:19:08.700Z,7.53
2022-07-29T06:21:45.903Z,9.00
2022-07-29T06:24:21.630Z,4.95
2022-07-29T06:26:57.152Z,5.70
2022-07-29T06:29:34.182Z,5.50
2022-07-29T06:32:10.567Z,4.78
2022-07-29T06:34:48.865Z,4.82
2022-07-29T06:37:26.201Z,6.95
2022-07-29T06:40:16.197Z,6.63
2022-07-29T06:42:48.490Z,6.72
2022-07-29T06:45:28.588Z,6.50
2022-07-29T06:48:02.754Z,5.13
2022-07-29T06:50:36.773Z,4.07
2022-07-29T06:53:11.143Z,4.15
2022-07-29T06:55:48.443Z,4.15
2022-07-29T06:58:23.266Z,6.05
2022-07-29T07:01:07.600Z,3.65
2022-07-29T07:03:40.640Z,4.10
2022-07-29T07:06:15.242Z,5.60
2022-07-29T07:08:49.938Z,3.93
2022-07-29T07:11:23.745Z,2.05
2022-07-29T07:14:03.491Z,3.90
2022-07-29T07:16:39.833Z,9.27
2022-07-29T07:21:49.040Z,11.45
2022-07-29T07:24:22.288Z,4.23
2022-07-29T07:26:56.860Z,2.97
2022-07-29T07:29:30.493Z,3.95
2022-07-29T07:32:08.347Z,3.80
2022-07-29T07:34:43.505Z,5.32
2022-07-29T07:37:20.802Z,5.45
2022-07-29T07:39:55.311Z,3.00
2022-07-29T07:42:30.536Z,4.22
2022-07-29T07:45:16.475Z,5.50
2022-07-29T07:47:56.547Z,2.80
2022-07-29T07:50:35.437Z,8.50
2022-07-29T07:53:10.294Z,3.47
2022-07-29T07:56:09.876Z,4.28
2022-07-29T07:58:39.947Z,3.25
2022-07-29T08:01:15.177Z,6.22
2022-07-29T08:03:53.242Z,7.70
2022-07-29T08:06:32.142Z,3.53
2022-07-29T08:09:27.677Z,2.40
2022-07-29T08:12:03.594Z,4.43
2022-07-29T08:14:36.140Z,4.65
2022-07-29T08:17:09.823Z,4.63
2022-07-29T08:19:49.566Z,3.95
2022-07-29T08:22:25.434Z,4.28
2022-07-29T08:25:00.661Z,4.68
2022-07-29T08:27:44.443Z,3.17
2022-07-29T08:30:22.385Z,10.03
2022-07-29T08:33:00.068Z,2.78
2022-07-29T08:35:38.037Z,5.13
2022-07-29T08:38:16.944Z,4.60
2022-07-29T08:40:50.989Z,5.25
2022-07-29T08:43:26.407Z,3.40
2022-07-29T08:46:03.108Z,3.97
2022-07-29T08:48:38.746Z,6.97
2022-07-29T08:53:51.331Z,5.50
2022-07-29T08:56:26.228Z,7.03
2022-07-29T08:59:02.168Z,3.10
2022-07-29T09:01:45.245Z,3.90
2022-07-29T09:04:19.710Z,3.17
2022-07-29T09:06:56.642Z,4.97
2022-07-29T09:09:30.775Z,7.22
2022-07-29T09:12:05.455Z,5.55
2022-07-29T09:14:40.598Z,2.85
2022-07-29T09:17:15.869Z,5.00
2022-07-29T09:19:50.941Z,3.15
2022-07-29T09:22:38.793Z,4.18
2022-07-29T09:25:17.717Z,3.70
2022-07-29T09:27:54.067Z,3.42
2022-07-29T09:30:32.221Z,4.80
2022-07-29T09:33:09.259Z,2.50
2022-07-29T09:35:42.992Z,5.20
2022-07-29T09:38:32.761Z,3.93
2022-07-29T09:41:10.367Z,4.55
2022-07-29T09:43:45.115Z,1.77
2022-07-29T09:46:19.798Z,5.37
2022-07-29T09:49:18.701Z,2.73
2022-07-29T09:51:52.314Z,6.15
2022-07-29T09:54:32.888Z,3.55
2022-07-29T09:57:05.798Z,7.75
2022-07-29T09:59:49.943Z,4.57
2022-07-29T10:02:24.209Z,2.75
2022-07-29T10:05:05.799Z,7.00
2022-07-29T10:07:58.755Z,4.28
2022-07-29T10:10:39.078Z,4.45
2022-07-29T10:13:16.092Z,3.20
2022-07-29T10:15:52.618Z,5.43
2022-07-29T10:18:25.995Z,5.03
2022-07-29T10:21:02.458Z,7.95
2022-07-29T10:23:46.466Z,3.50
2022-07-29T10:26:27.157Z,2.70
2022-07-29T10:29:04.734Z,3.65
2022-07-29T10:31:55.247Z,5.85
2022-07-29T10:34:37.527Z,4.95
2022-07-29T10:37:15.635Z,3.90
2022-07-29T10:39:56.950Z,6.00
2022-07-29T10:42:34.627Z,4.60
2022-07-29T10:45:09.861Z,4.75
2022-07-29T10:47:44.690Z,2.90
2022-07-29T10:50:17.601Z,5.23
2022-07-29T10:53:02.837Z,9.45
2022-07-29T10:55:44.684Z,6.20
2022-07-29T10:58:21.708Z,7.47
2022-07-29T11:00:54.464Z,3.53
2022-07-29T11:03:49.525Z,5.80
2022-07-29T11:06:28.227Z,5.60
2022-07-29T11:09:03.703Z,6.43
2022-07-29T11:15:09.892Z,10.80
2022-07-29T11:18:15.138Z,2.33
2022-07-29T11:20:57.733Z,2.95
2022-07-29T11:23:33.807Z,3.13
2022-07-29T11:26:43.472Z,3.97
2022-07-29T11:29:15.080Z,3.90
2022-07-29T11:31:51.963Z,8.38
2022-07-29T11:34:32.099Z,5.05
2022-07-29T11:37:28.264Z,4.20
2022-07-29T11:40:18.434Z,5.68
2022-07-29T11:42:53.959Z,6.65
2022-07-29T11:45:45.428Z,3.85
2022-07-29T11:48:28.432Z,3.50
2022-07-29T11:51:13.344Z,3.38
2022-07-29T11:53:52.533Z,11.25
2022-07-29T11:56:26.539Z,4.30
2022-07-29T11:59:10.830Z,3.05
2022-07-29T12:02:18.472Z,4.20
2022-07-29T12:04:56.618Z,6.65
2022-07-29T12:07:35.576Z,5.20
2022-07-29T12:10:11.604Z,3.70
2022-07-29T12:12:56.371Z,4.65
2022-07-29T12:15:39.238Z,2.50
2022-07-29T12:18:24.011Z,5.00
2022-07-29T12:21:05.077Z,4.03
2022-07-29T12:23:41.779Z,6.35
2022-07-29T12:26:25.361Z,2.65
2022-07-29T12:29:02.378Z,4.83
2022-07-29T12:31:43.277Z,2.80
2022-07-29T12:34:21.838Z,6.70
2022-07-29T12:36:55.111Z,6.70
2022-07-29T12:39:33.471Z,7.20
2022-07-29T12:42:18.636Z,2.60
2022-07-29T12:44:52.626Z,5.20
2022-07-29T12:47:27.712Z,2.90
2022-07-29T12:50:13.034Z,4.35
2022-07-29T12:52:47.581Z,3.42
2022-07-29T12:55:44.144Z,9.93
2022-07-29T12:58:19.715Z,6.50
2022-07-29T13:04:00.870Z,8.50
2022-07-29T13:09:40.918Z,6.40
2022-07-29T13:12:17.933Z,7.70
2022-07-29T13:14:52.043Z,4.25
2022-07-29T13:17:27.330Z,4.45
2022-07-29T13:20:13.885Z,5.90
2022-07-29T13:22:52.298Z,6.60
2022-07-29T13:25:30.327Z,3.20
2022-07-29T13:28:09.616Z,5.07
2022-07-29T13:30:50.170Z,3.85
2022-07-29T13:33:28.228Z,12.40
2022-07-29T13:36:03.521Z,5.10
2022-07-29T13:38:38.491Z,6.15
2022-07-29T13:41:14.206Z,6.10
2022-07-29T13:43:50.741Z,4.60
2022-07-29T13:46:24.466Z,10.65
2022-07-29T13:48:58.965Z,5.72
2022-07-29T13:51:34.824Z,4.00
2022-07-29T13:54:07.978Z,3.75
2022-07-29T13:56:41.481Z,7.27
2022-07-29T13:59:20.080Z,4.45
2022-07-29T14:01:54.107Z,9.90
2022-07-29T14:04:29.114Z,5.75
2022-07-29T14:07:04.462Z,5.75
2022-07-29T14:09:41.717Z,4.13
2022-07-29T14:12:15.384Z,3.75
2022-07-29T14:14:52.943Z,3.83
2022-07-29T14:17:25.644Z,3.55
2022-07-29T14:20:00.236Z,5.40
2022-07-29T14:22:40.156Z,4.37
2022-07-29T14:25:17.777Z,6.20
2022-07-29T14:27:58.530Z,4.18
2022-07-29T14:30:38.601Z,4.50
2022-07-29T14:33:11.455Z,15.07
2022-07-29T14:35:46.354Z,4.50
2022-07-29T14:38:22.042Z,9.60
2022-07-29T14:41:00.327Z,6.30
2022-07-29T14:43:39.796Z,6.90
2022-07-29T14:46:16.777Z,11.55
2022-07-29T14:48:52.511Z,4.55
2022-07-29T14:51:32.444Z,4.37
2022-07-29T14:54:10.186Z,2.75
2022-07-29T14:56:46.848Z,4.55
2022-07-29T14:59:25.972Z,5.60
2022-07-29T15:02:04.594Z,7.65
2022-07-29T15:04:41.371Z,6.03
2022-07-29T15:07:14.999Z,5.22
2022-07-29T15:09:49.756Z,4.72
2022-07-29T15:12:23.123Z,3.70
2022-07-29T15:14:57.334Z,3.60
2022-07-29T15:17:35.545Z,3.80
2022-07-29T15:20:13.121Z,6.10
2022-07-29T15:22:46.835Z,7.57
2022-07-29T15:25:19.886Z,5.72
2022-07-29T15:27:56.624Z,4.60
2022-07-29T15:30:34.902Z,5.70
2022-07-29T15:33:11.356Z,5.00
2022-07-29T15:35:46.255Z,3.50
2022-07-29T15:38:20.755Z,7.13
2022-07-29T15:41:02.860Z,3.60
2022-07-29T15:43:36.565Z,8.13
2022-07-29T15:46:23.620Z,7.00
2022-07-29T15:49:01.411Z,3.10
2022-07-29T15:51:37.273Z,4.25
2022-07-29T15:54:11.581Z,9.67
2022-07-29T15:56:48.707Z,6.50
2022-07-29T15:59:22.822Z,5.75
2022-07-29T16:01:55.392Z,4.05
2022-07-29T16:04:33.954Z,6.20
2022-07-29T16:07:07.846Z,11.55
2022-07-29T16:09:41.170Z,4.35
2022-07-29T16:12:15.347Z,6.23
2022-07-29T16:14:52.747Z,4.78
2022-07-29T16:17:25.919Z,7.73
2022-07-29T16:20:05.036Z,3.63
2022-07-29T16:22:37.770Z,5.85
2022-07-29T16:25:13.139Z,10.20
2022-07-29T16:27:48.164Z,4.77
2022-07-29T16:30:23.710Z,6.35
2022-07-29T16:35:40.658Z,5.40
2022-07-29T16:38:17.760Z,3.10
2022-07-29T16:40:51.569Z,6.38
2022-07-29T16:43:25.307Z,9.47
2022-07-29T16:45:59.997Z,4.95
2022-07-29T16:48:33.555Z,5.60
2022-07-29T16:51:14.709Z,7.63
2022-07-29T16:53:50.425Z,6.00
2022-07-29T16:56:26.320Z,3.65
2022-07-29T16:59:01.142Z,5.47
2022-07-29T17:01:34.544Z,6.20
2022-07-29T17:04:12.194Z,7.97
2022-07-29T17:06:50.249Z,4.53
2022-07-29T17:09:27.943Z,3.70
2022-07-29T17:12:01.797Z,3.55
2022-07-29T17:14:38.649Z,5.15
2022-07-29T17:17:15.664Z,4.25
2022-07-29T17:19:51.141Z,4.85
2022-07-29T17:22:27.253Z,4.97
2022-07-29T17:25:03.287Z,5.30
2022-07-29T17:27:36.578Z,3.93
2022-07-29T17:30:12.210Z,3.30
2022-07-29T17:32:47.048Z,13.63
2022-07-29T17:35:41.411Z,8.15
2022-07-29T17:38:18.342Z,3.93
2022-07-29T17:40:52.886Z,8.90
2022-07-29T17:43:28.006Z,4.10
2022-07-29T17:46:01.761Z,5.33
2022-07-29T17:48:34.569Z,5.13
2022-07-29T17:51:09.678Z,10.57
2022-07-29T17:53:47.360Z,4.07
2022-07-29T17:56:22.128Z,6.40
2022-07-29T17:58:55.281Z,5.30
2022-07-29T18:01:31.262Z,7.07
2022-07-29T18:04:06.269Z,5.30
2022-07-29T18:06:41.654Z,6.00
2022-07-29T18:09:19.809Z,5.88
2022-07-29T18:11:57.871Z,6.53
2022-07-29T18:14:31.772Z,8.25
2022-07-29T18:17:05.441Z,8.63
2022-07-29T18:19:39.926Z,6.85
2022-07-29T18:22:15.684Z,5.95
2022-07-29T18:24:52.335Z,5.20
2022-07-29T18:27:26.478Z,8.73
2022-07-29T18:30:03.555Z,7.45
2022-07-29T18:32:47.379Z,9.30
2022-07-29T18:35:34.647Z,5.60
2022-07-29T18:38:09.387Z,5.82
2022-07-29T18:40:47.594Z,15.00
2022-07-29T18:43:22.221Z,7.20
2022-07-29T18:45:55.592Z,7.85
2022-07-29T18:48:32.053Z,6.67
2022-07-29T18:51:09.400Z,8.80
2022-07-29T18:53:46.623Z,3.40
2022-07-29T18:56:22.690Z,5.15
2022-07-29T18:58:58.606Z,7.70
2022-07-29T19:01:32.704Z,6.05
2022-07-29T19:04:06.369Z,7.80
2022-07-29T19:06:41.239Z,9.90
2022-07-29T19:09:21.711Z,6.45
2022-07-29T19:12:03.217Z,5.80
2022-07-29T19:14:40.212Z,7.15
2022-07-29T19:19:46.938Z,8.70
2022-07-29T19:22:20.907Z,8.10
2022-07-29T19:24:57.133Z,10.35
2022-07-29T19:27:36.881Z,9.32
2022-07-29T19:30:13.346Z,5.80
2022-07-29T19:32:49.232Z,5.40
2022-07-29T19:35:28.507Z,9.00
2022-07-29T19:38:04.291Z,12.32
2022-07-29T19:40:40.600Z,75.65
2022-07-29T19:43:50.354Z,34.65
2022-07-29T19:46:11.347Z,25.38
2022-07-29T19:48:47.011Z,22.00
2022-07-29T19:51:19.820Z,46.93
2022-07-29T19:54:01.183Z,51.40
2022-07-29T19:56:35.024Z,26.80
2022-07-29T19:59:14.846Z,18.13
2022-07-29T20:01:50.360Z,11.55
2022-07-29T20:07:02.014Z,15.43
2022-07-29T20:09:44.002Z,35.00
2022-07-29T20:12:17.640Z,34.85
2022-07-29T20:14:55.289Z,42.80
2022-07-29T20:17:33.968Z,35.35
2022-07-29T20:20:13.595Z,35.90
2022-07-29T20:22:48.418Z,30.92
2022-07-29T20:28:24.885Z,8.65
2022-07-29T20:31:01.914Z,12.30
2022-07-29T20:33:33.675Z,8.10
2022-07-29T20:36:09.970Z,9.60
2022-07-29T20:38:43.693Z,11.00
2022-07-29T20:41:17.357Z,5.82
2022-07-29T20:43:53.411Z,6.95
2022-07-29T20:46:28.216Z,8.00
2022-07-29T20:49:00.791Z,9.10
2022-07-29T20:51:43.482Z,6.78
2022-07-29T20:54:16.539Z,9.82
2022-07-29T20:56:50.827Z,7.40
2022-07-29T20:59:32.940Z,9.90
2022-07-29T21:02:13.135Z,11.40
2022-07-29T21:04:50.879Z,9.40
2022-07-29T21:07:22.673Z,7.78
2022-07-29T21:09:58.711Z,7.75
2022-07-29T21:12:35.598Z,10.20
2022-07-29T21:15:13.738Z,6.53
2022-07-29T21:17:52.213Z,6.97
2022-07-29T21:20:24.626Z,8.07
2022-07-29T21:23:01.568Z,8.82
2022-07-29T21:25:35.338Z,6.95
2022-07-29T21:28:20.202Z,9.35
2022-07-29T21:30:55.366Z,7.30
2022-07-29T21:33:33.713Z,9.95
2022-07-29T21:36:46.129Z,9.88
2022-07-29T21:39:07.410Z,8.00
2022-07-29T21:41:42.719Z,12.48
2022-07-29T21:44:18.719Z,12.20
2022-07-29T21:46:53.497Z,11.85
2022-07-29T21:49:31.884Z,8.00
2022-07-29T21:52:03.698Z,9.90
2022-07-29T21:54:38.049Z,7.70
2022-07-29T21:57:13.203Z,7.00
2022-07-29T21:59:47.079Z,7.10
2022-07-29T22:02:19.710Z,7.80
2022-07-29T22:04:57.474Z,10.85
2022-07-29T22:07:54.598Z,6.40
2022-07-29T22:10:28.032Z,8.57
2022-07-29T22:13:03.489Z,7.80
2022-07-29T22:15:38.684Z,4.70
2022-07-29T22:18:12.558Z,11.90
2022-07-29T22:20:56.749Z,9.60
2022-07-29T22:23:54.420Z,9.48
2022-07-29T22:26:26.541Z,5.30
2022-07-29T22:29:01.299Z,7.72
2022-07-29T22:31:34.125Z,8.85
2022-07-29T22:34:12.960Z,6.87
2022-07-29T22:36:50.417Z,7.07
2022-07-29T22:39:25.090Z,7.00
2022-07-29T22:41:58.022Z,5.60
2022-07-29T22:44:33.495Z,9.85
2022-07-29T22:47:08.504Z,3.78
2022-07-29T22:49:43.434Z,4.88
2022-07-29T22:52:20.902Z,7.15
2022-07-29T22:54:54.719Z,4.78
2022-07-29T22:57:28.838Z,7.97
2022-07-29T23:00:02.793Z,5.10
2022-07-29T23:02:37.610Z,4.50
2022-07-29T23:05:12.191Z,6.83
2022-07-29T23:07:46.868Z,7.90
2022-07-29T23:10:23.017Z,9.63
2022-07-29T23:12:56.292Z,6.35
2022-07-29T23:15:31.801Z,3.80
2022-07-29T23:18:06.418Z,6.30
2022-07-29T23:20:43.816Z,5.38
2022-07-29T23:23:21.580Z,7.10
2022-07-29T23:25:56.471Z,6.38
2022-07-29T23:28:31.980Z,2.90
2022-07-29T23:31:06.989Z,7.35
2022-07-29T23:33:40.164Z,3.70
2022-07-29T23:36:13.513Z,6.80
2022-07-29T23:38:50.618Z,7.47
2022-07-29T23:41:25.204Z,3.45
2022-07-29T23:44:00.414Z,7.95
2022-07-29T23:46:33.523Z,6.57
2022-07-29T23:49:07.766Z,4.07
2022-07-29T23:51:41.022Z,8.50
2022-07-29T23:54:17.510Z,3.40
2022-07-29T23:56:52.411Z,2.72
2022-07-29T23:59:27.933Z,3.07
